Time;durP1;ratioP1;P1;durP2;ratioP2;P2;SDS_P1;SDS_P2;PMS_P1;PMS_P2;Temp;Humidity;BMP_temperature;BMP_pressure;BME280_temperature;BME280_humidity;BME280_pressure;Samples;Min_cycle;Max_cycle;Signal;HPM_P1;HPM_P2
2022/03/24 00:00:42;;;;;;;;;76.00;60.33;;;;;11.73;32.51;100424.81;5108522;28;9315;-74
2022/03/24 00:03:19;;;;;;;;;70.67;55.67;;;;;11.71;32.34;100421.31;5108495;28;9443;-74
2022/03/24 00:05:54;;;;;;;;;61.67;47.33;;;;;11.70;32.33;100422.16;5107955;28;8935;-74
2022/03/24 00:08:23;;;;;;;;;68.00;55.00;;;;;11.68;32.49;100416.06;5108499;28;9347;-73
2022/03/24 00:10:51;;;;;;;;;71.00;56.67;;;;;11.67;32.03;100409.97;5072402;28;9320;-74
2022/03/24 00:13:20;;;;;;;;;73.33;58.33;;;;;11.65;32.58;100409.06;5108100;28;9391;-72
2022/03/24 00:15:50;;;;;;;;;67.00;52.33;;;;;11.61;32.65;100412.53;5108369;28;9437;-72
2022/03/24 00:18:18;;;;;;;;;71.00;55.67;;;;;11.63;32.22;100407.31;5108165;28;9254;-72
2022/03/24 00:20:47;;;;;;;;;73.00;55.00;;;;;11.62;32.16;100408.16;5110503;28;9336;-73
2022/03/24 00:23:16;;;;;;;;;72.00;57.33;;;;;11.62;32.04;100410.78;5090707;28;9162;-71
2022/03/24 00:25:51;;;;;;;;;69.67;55.67;;;;;11.60;32.62;100408.16;5092056;28;9192;-72
2022/03/24 00:28:19;;;;;;;;;72.33;56.33;;;;;11.55;32.37;100403.75;5091961;28;9304;-72
2022/03/24 00:30:48;;;;;;;;;68.33;53.00;;;;;11.55;32.05;100403.75;5091903;28;9262;-72
2022/03/24 00:33:18;;;;;;;;;71.33;54.67;;;;;11.57;32.25;100400.31;5073620;28;9106;-72
2022/03/24 00:35:47;;;;;;;;;73.67;59.00;;;;;11.56;32.39;100393.31;5092028;28;9106;-73
2022/03/24 00:38:16;;;;;;;;;74.00;58.00;;;;;11.56;32.22;100393.31;5073686;28;9340;-71
2022/03/24 00:40:45;;;;;;;;;71.00;53.67;;;;;11.57;32.08;100394.19;5092193;28;9185;-72
2022/03/24 00:43:14;;;;;;;;;73.67;57.67;;;;;11.52;32.37;100387.19;5091888;28;9169;-70
2022/03/24 00:45:42;;;;;;;;;71.00;57.67;;;;;11.51;32.07;100384.56;5073637;28;9305;-72
2022/03/24 00:48:11;;;;;;;;;74.50;58.25;;;;;11.48;32.36;100382.81;5092082;28;9384;-72
2022/03/24 00:50:41;;;;;;;;;74.75;58.25;;;;;11.46;32.54;100387.13;5091594;28;9572;-75
2022/03/24 00:53:11;;;;;;;;;75.67;61.33;;;;;11.45;32.16;100382.75;5056120;28;9470;-72
2022/03/24 00:55:41;;;;;;;;;71.33;57.33;;;;;11.43;32.34;100391.44;5073582;28;9397;-72
2022/03/24 00:58:10;;;;;;;;;74.00;59.33;;;;;11.43;32.16;100389.69;5089934;28;9419;-73
2022/03/24 01:00:41;;;;;;;;;75.00;59.25;;;;;11.42;32.07;100381.88;5091520;28;9466;-73
2022/03/24 01:03:10;;;;;;;;;82.50;61.00;;;;;11.38;32.17;100391.41;5091127;28;9468;-71
2022/03/24 01:05:41;;;;;;;;;76.00;60.67;;;;;11.36;32.48;100390.53;5073086;28;10155;-75
2022/03/24 01:08:10;;;;;;;;;78.25;61.75;;;;;11.35;32.52;100395.72;5073239;28;9594;-74
2022/03/24 01:10:39;;;;;;;;;73.67;58.00;;;;;11.32;32.55;100387.00;5072990;28;9584;-72
2022/03/24 01:13:08;;;;;;;;;83.25;61.75;;;;;11.31;32.45;100385.25;5091295;28;9500;-73
2022/03/24 01:15:37;;;;;;;;;73.75;58.25;;;;;11.31;32.33;100376.53;5072991;28;9639;-72
2022/03/24 01:18:07;;;;;;;;;81.25;63.00;;;;;11.29;32.92;100373.91;5055831;28;9536;-73
2022/03/24 01:20:36;;;;;;;;;81.75;63.50;;;;;11.28;32.97;100374.75;5042602;28;9562;-73
2022/03/24 01:23:06;;;;;;;;;79.00;63.75;;;;;11.26;32.71;100375.63;5071821;28;9839;-72
2022/03/24 01:25:36;;;;;;;;;79.75;61.25;;;;;11.24;33.02;100372.97;5072584;28;9799;-73
2022/03/24 01:28:05;;;;;;;;;78.50;61.00;;;;;11.19;33.19;100369.47;5072855;28;9653;-74
2022/03/24 01:30:34;;;;;;;;;80.25;61.75;;;;;11.19;32.90;100371.19;5091029;28;10413;-72
2022/03/24 01:33:02;;;;;;;;;79.00;61.75;;;;;11.16;33.11;100372.03;5072086;28;9448;-73
2022/03/24 01:35:31;;;;;;;;;81.50;63.00;;;;;11.16;33.17;100371.19;5090692;28;9813;-74
2022/03/24 01:38:00;;;;;;;;;81.75;63.00;;;;;11.12;33.45;100358.06;5072678;28;9663;-73
2022/03/24 01:40:30;;;;;;;;;80.25;63.25;;;;;11.09;33.20;100362.38;5072685;28;9605;-74
2022/03/24 01:42:59;;;;;;;;;81.50;65.00;;;;;11.00;33.56;100363.19;5090646;28;9873;-74
2022/03/24 01:45:30;;;;;;;;;83.00;63.25;;;;;11.03;33.50;100360.59;5072586;28;9897;-71
2022/03/24 01:47:58;;;;;;;;;84.50;63.50;;;;;11.03;33.54;100355.38;5055837;28;9871;-71
2022/03/24 01:50:27;;;;;;;;;85.00;64.75;;;;;11.00;33.72;100357.97;5090286;28;9726;-73
2022/03/24 01:52:56;;;;;;;;;79.25;61.50;;;;;11.00;34.04;100350.13;5090606;28;9700;-73
2022/03/24 01:55:25;;;;;;;;;84.25;66.00;;;;;10.95;34.04;100356.16;5072273;28;9881;-73
2022/03/24 01:57:56;;;;;;;;;76.25;62.25;;;;;10.96;33.76;100348.31;5072253;28;9797;-73
2022/03/24 02:00:25;;;;;;;;;81.00;63.00;;;;;10.95;33.72;100359.63;5072126;28;10452;-72
2022/03/24 02:02:55;;;;;;;;;81.50;63.75;;;;;10.91;33.97;100356.13;5072185;28;9994;-75
2022/03/24 02:05:23;;;;;;;;;82.50;63.00;;;;;10.90;33.64;100356.09;5055599;28;9639;-71
2022/03/24 02:07:52;;;;;;;;;78.75;61.50;;;;;10.89;33.62;100344.78;5047296;28;9772;-72
2022/03/24 02:10:21;;;;;;;;;77.25;62.50;;;;;10.86;34.03;100344.75;5031175;28;9625;-72
2022/03/24 02:12:56;;;;;;;;;78.25;62.75;;;;;10.84;34.36;100340.38;5030721;28;10652;-72
2022/03/24 02:15:26;;;;;;;;;78.00;63.00;;;;;10.80;34.09;100352.50;5047265;28;9939;-73
2022/03/24 02:17:55;;;;;;;;;81.50;63.50;;;;;10.79;33.98;100342.91;5014297;28;9518;-72
2022/03/24 02:20:27;;;;;;;;;80.50;63.50;;;;;10.79;33.91;100348.13;5047402;28;9671;-72
2022/03/24 02:22:58;;;;;;;;;81.50;62.00;;;;;10.77;34.31;100344.63;5030989;28;9631;-72
2022/03/24 02:25:31;;;;;;;;;80.00;64.00;;;;;10.77;34.52;100330.72;5047506;28;9551;-74
2022/03/24 02:28:01;;;;;;;;;80.00;62.50;;;;;10.76;34.10;100337.69;5015739;28;9750;-72
2022/03/24 02:30:30;;;;;;;;;77.25;60.75;;;;;10.68;34.49;100332.38;5047502;28;9568;-73
2022/03/24 02:32:59;;;;;;;;;81.75;64.25;;;;;10.64;33.90;100328.00;5047277;28;10410;-72
2022/03/24 02:35:28;;;;;;;;;77.00;61.00;;;;;10.64;34.81;100332.31;5030643;28;10480;-72
2022/03/24 02:37:58;;;;;;;;;77.75;63.00;;;;;10.62;34.38;100327.06;5048984;28;9437;-73
2022/03/24 02:40:27;;;;;;;;;81.25;62.25;;;;;10.61;34.76;100327.06;5089544;28;9475;-74
2022/03/24 02:42:56;;;;;;;;;77.50;62.00;;;;;10.62;34.64;100326.19;5089005;28;9631;-72
2022/03/24 02:45:25;;;;;;;;;83.50;65.50;;;;;10.58;34.56;100321.81;5099938;28;9602;-73
2022/03/24 02:47:53;;;;;;;;;78.75;62.00;;;;;10.56;35.05;100320.91;5109851;28;9812;-73
2022/03/24 02:50:22;;;;;;;;;78.67;62.00;;;;;10.54;34.88;100323.50;5109744;28;9558;-71
2022/03/24 02:52:51;;;;;;;;;74.50;59.50;;;;;10.51;35.14;100326.09;5109579;28;9541;-72
2022/03/24 02:55:21;;;;;;;;;81.50;65.25;;;;;10.47;34.91;100327.78;5109843;28;9735;-73
2022/03/24 02:57:51;;;;;;;;;77.50;62.00;;;;;10.46;34.83;100326.03;5109618;28;9758;-73
2022/03/24 03:00:20;;;;;;;;;77.75;59.75;;;;;10.44;34.79;100321.66;5109654;28;9737;-72
2022/03/24 03:02:49;;;;;;;;;73.00;58.00;;;;;10.40;34.79;100328.56;5058117;28;9752;-72
2022/03/24 03:05:18;;;;;;;;;80.67;62.00;;;;;10.38;35.10;100326.78;5109483;28;9465;-73
2022/03/24 03:07:47;;;;;;;;;76.75;61.00;;;;;10.28;35.43;100331.84;5109332;28;9415;-73
2022/03/24 03:10:16;;;;;;;;;75.50;59.00;;;;;10.27;35.55;100324.00;5109618;28;9634;-72
2022/03/24 03:12:46;;;;;;;;;83.00;64.25;;;;;10.27;35.17;100321.41;5109494;28;9652;-74
2022/03/24 03:15:15;;;;;;;;;81.25;63.00;;;;;10.27;35.13;100313.59;5109316;28;9709;-71
2022/03/24 03:17:43;;;;;;;;;80.00;61.33;;;;;10.26;35.05;100322.25;5109012;28;9507;-73
2022/03/24 03:20:13;;;;;;;;;76.33;59.33;;;;;10.27;35.23;100329.22;5089062;28;9457;-72
2022/03/24 03:22:42;;;;;;;;;68.00;52.50;;;;;10.24;34.89;100324.81;5088645;28;9347;-73
2022/03/24 03:25:11;;;;;;;;;76.33;60.00;;;;;10.25;35.13;100323.13;5088619;28;10456;-72
2022/03/24 03:27:39;;;;;;;;;74.33;58.00;;;;;10.22;35.14;100318.72;5088551;28;9527;-71
2022/03/24 03:30:12;;;;;;;;;73.00;58.33;;;;;10.20;34.92;100312.59;5070419;28;9394;-72
2022/03/24 03:32:42;;;;;;;;;76.00;59.33;;;;;10.21;34.85;100316.09;5004524;28;9401;-72
2022/03/24 03:35:12;;;;;;;;;67.67;55.00;;;;;10.20;35.39;100315.22;5053837;28;9332;-73
2022/03/24 03:37:40;;;;;;;;;70.67;58.00;;;;;10.12;35.33;100312.50;5088649;28;9199;-72
2022/03/24 03:40:10;;;;;;;;;72.33;55.00;;;;;10.12;35.25;100315.13;5070476;28;9457;-73
2022/03/24 03:42:39;;;;;;;;;72.00;56.33;;;;;10.07;35.41;100315.91;5088650;28;9339;-72
2022/03/24 03:45:10;;;;;;;;;74.00;59.00;;;;;10.10;34.98;100318.56;5070982;28;9750;-73
2022/03/24 03:47:39;;;;;;;;;73.67;59.00;;;;;10.12;34.97;100319.47;5053468;28;9189;-72
2022/03/24 03:50:08;;;;;;;;;70.67;57.33;;;;;10.10;35.74;100313.34;5104785;28;9328;-72
2022/03/24 03:52:37;;;;;;;;;60.33;47.00;;;;;10.11;35.60;100309.88;5109160;28;9185;-71
2022/03/24 03:55:08;;;;;;;;;71.00;56.67;;;;;10.09;35.48;100317.69;5107932;28;9069;-72
2022/03/24 03:57:36;;;;;;;;;74.67;57.33;;;;;10.07;35.53;100319.38;5108879;28;9293;-72
2022/03/24 04:02:51;;;;;;;;;70.00;56.33;;;;;10.04;35.14;100318.50;5107920;28;8936;-71
2022/03/24 04:05:25;;;;;;;;;78.00;59.00;;;;;10.06;35.71;100311.56;5108377;28;9017;-72
2022/03/24 04:07:54;;;;;;;;;69.67;56.67;;;;;10.05;35.63;100323.69;5108367;28;9174;-72
2022/03/24 04:10:22;;;;;;;;;73.33;58.00;;;;;10.05;35.98;100321.09;5039057;28;9034;-71
2022/03/24 04:12:51;;;;;;;;;71.25;57.75;;;;;10.05;35.08;100321.09;5090432;28;9091;-73
2022/03/24 04:15:20;;;;;;;;;71.33;59.33;;;;;9.99;35.95;100318.41;5102337;28;8837;-73
2022/03/24 04:17:51;;;;;;;;;73.67;59.00;;;;;9.98;35.60;100324.50;5070151;28;8956;-72
2022/03/24 04:20:21;;;;;;;;;67.00;54.00;;;;;9.97;35.66;100321.84;5087889;28;8979;-74
2022/03/24 04:22:50;;;;;;;;;72.67;56.00;;;;;9.97;35.70;100322.72;5088019;28;9035;-72
2022/03/24 04:25:20;;;;;;;;;74.33;57.67;;;;;9.98;35.48;100319.28;5093919;28;9994;-73
2022/03/24 04:27:49;;;;;;;;;74.00;58.67;;;;;9.96;35.81;100315.75;5090209;28;9167;-72
2022/03/24 04:30:18;;;;;;;;;70.67;56.00;;;;;9.94;35.49;100315.75;5108417;28;9343;-72
2022/03/24 04:32:47;;;;;;;;;72.67;55.67;;;;;9.96;35.45;100323.56;5108358;28;9252;-74
2022/03/24 04:35:17;;;;;;;;;76.33;59.00;;;;;9.91;35.32;100307.00;5108258;28;9082;-72
2022/03/24 04:37:47;;;;;;;;;72.67;57.33;;;;;9.96;35.97;100313.13;5107851;28;9270;-72
2022/03/24 04:40:16;;;;;;;;;70.33;56.33;;;;;9.93;36.05;100319.19;5108139;28;8949;-72
2022/03/24 04:42:46;;;;;;;;;75.00;58.00;;;;;9.93;36.55;100319.19;5108255;28;9116;-72
2022/03/24 04:45:15;;;;;;;;;92.50;77.25;;;;;9.89;35.61;100324.34;5108185;28;9889;-72
2022/03/24 04:47:44;;;;;;;;;80.00;61.00;;;;;9.88;36.59;100318.25;5107743;28;10382;-73
2022/03/24 04:50:14;;;;;;;;;70.67;58.67;;;;;9.92;36.16;100316.56;5105680;28;9425;-73
2022/03/24 04:52:44;;;;;;;;;73.67;58.00;;;;;9.86;36.38;100324.28;5087565;28;9324;-73
2022/03/24 04:55:14;;;;;;;;;69.00;56.33;;;;;9.89;35.98;100324.34;5087756;28;9186;-75
2022/03/24 04:57:43;;;;;;;;;77.00;59.33;;;;;9.94;35.90;100322.66;5097953;28;9297;-73
2022/03/24 05:00:15;;;;;;;;;76.00;58.33;;;;;10.00;35.48;100332.31;5108155;28;9102;-72
2022/03/24 05:02:45;;;;;;;;;75.67;59.00;;;;;10.06;35.66;100328.06;5107762;28;9254;-74
2022/03/24 05:05:15;;;;;;;;;78.00;63.00;;;;;10.12;35.64;100325.53;5108121;28;9327;-71
2022/03/24 05:07:45;;;;;;;;;71.33;56.00;;;;;10.17;35.61;100333.44;5110062;28;9314;-74
2022/03/24 05:10:14;;;;;;;;;73.33;59.00;;;;;10.24;35.06;100331.78;5111369;28;9031;-72
2022/03/24 05:12:42;;;;;;;;;70.67;57.67;;;;;10.30;34.93;100338.00;5111771;28;9104;-74
2022/03/24 05:15:13;;;;;;;;;77.00;61.00;;;;;10.37;35.41;100338.06;5111458;28;9090;-73
2022/03/24 05:17:42;;;;;;;;;80.50;62.50;;;;;10.44;35.32;100338.16;5111431;28;9157;-73
2022/03/24 05:20:11;;;;;;;;;84.50;66.75;;;;;10.49;34.72;100333.91;5092549;28;9599;-72
2022/03/24 05:22:40;;;;;;;;;71.67;57.33;;;;;10.54;34.51;100337.41;5111019;28;9754;-72
2022/03/24 05:25:10;;;;;;;;;73.00;58.33;;;;;10.61;34.79;100335.78;5111070;28;9086;-71
2022/03/24 05:27:39;;;;;;;;;69.00;56.33;;;;;10.70;34.07;100337.63;5110829;28;9264;-72
2022/03/24 05:30:08;;;;;;;;;76.00;60.33;;;;;10.76;34.28;100342.03;5110747;28;9068;-72
2022/03/24 05:32:37;;;;;;;;;77.33;59.67;;;;;10.85;34.56;100337.78;5092708;28;9406;-74
2022/03/24 05:35:06;;;;;;;;;101.00;92.00;;;;;10.89;34.30;100338.72;5111000;28;9175;-72
2022/03/24 05:37:35;;;;;;;;;81.50;62.00;;;;;11.00;33.88;100336.19;5111267;28;10878;-72
2022/03/24 05:40:05;;;;;;;;;83.25;64.50;;;;;11.09;33.77;100344.97;5107453;28;9745;-72
2022/03/24 05:42:34;;;;;;;;;76.67;58.33;;;;;11.20;33.74;100347.72;5107340;28;9838;-72
2022/03/24 05:45:04;;;;;;;;;74.00;56.33;;;;;11.24;33.42;100341.66;5042037;28;9088;-72
2022/03/24 05:47:32;;;;;;;;;71.33;59.00;;;;;11.36;33.50;100350.47;5088262;28;9118;-72
2022/03/24 05:50:01;;;;;;;;;71.50;56.00;;;;;11.46;33.67;100349.69;5098508;28;9015;-71
2022/03/24 05:52:59;;;;;;;;;70.33;58.00;;;;;11.51;32.65;100350.59;5017887;28;8864;-72
2022/03/24 05:55:29;;;;;;;;;74.00;58.33;;;;;11.60;33.09;100350.69;5110356;28;8985;-71
2022/03/24 05:57:59;;;;;;;;;60.00;48.00;;;;;11.70;32.68;100355.13;5067033;28;9074;-72
2022/03/24 06:00:28;;;;;;;;;68.50;55.50;;;;;11.79;32.03;100361.28;5067202;28;9819;-72
2022/03/24 06:02:57;;;;;;;;;71.33;56.00;;;;;11.93;32.27;100351.84;5066280;28;9709;-72
2022/03/24 06:05:26;;;;;;;;;59.75;48.25;;;;;12.02;32.49;100356.25;5066769;28;9104;-70
2022/03/24 06:07:55;;;;;;;;;67.00;55.33;;;;;12.14;32.32;100361.56;5033213;28;8879;-70
2022/03/24 06:10:23;;;;;;;;;69.00;54.75;;;;;12.22;32.01;100356.38;5066834;28;8939;-70
2022/03/24 06:12:52;;;;;;;;;65.33;53.00;;;;;12.36;31.70;100353.84;5065921;28;8867;-71
2022/03/24 06:15:22;;;;;;;;;67.75;54.25;;;;;12.50;30.92;100360.03;5066015;28;9149;-71
2022/03/24 06:17:51;;;;;;;;;73.00;55.33;;;;;12.55;31.33;100362.63;5016550;28;8911;-71
2022/03/24 06:20:24;;;;;;;;;71.67;54.67;;;;;12.43;30.56;100358.22;5065206;28;9006;-71
2022/03/24 06:22:54;;;;;;;;;18.67;9.33;;;;;12.33;31.34;100354.69;5064843;28;9035;-70
2022/03/24 06:25:23;;;;;;;;;67.33;55.00;;;;;12.48;31.13;100364.38;5048975;28;8925;-70
2022/03/24 06:27:51;;;;;;;;;66.33;53.00;;;;;12.50;31.35;100357.41;5065741;28;9084;-72
2022/03/24 06:30:22;;;;;;;;;68.00;53.00;;;;;12.67;31.25;100362.72;5108376;28;8988;-71
2022/03/24 06:32:52;;;;;;;;;65.00;53.00;;;;;12.79;30.95;100356.63;5057546;28;9003;-71
2022/03/24 06:35:21;;;;;;;;;69.33;55.00;;;;;12.87;30.44;100357.53;5109348;28;8996;-71
2022/03/24 06:37:51;;;;;;;;;63.50;51.50;;;;;12.94;30.71;100361.06;5108585;28;8961;-70
2022/03/24 06:40:20;;;;;;;;;62.75;51.75;;;;;13.10;30.92;100349.75;5109576;28;8865;-72
2022/03/24 06:42:49;;;;;;;;;69.00;54.00;;;;;13.27;30.83;100353.28;5108567;28;8880;-72
2022/03/24 06:45:18;;;;;;;;;69.67;54.33;;;;;13.36;30.43;100359.41;5109119;28;9041;-71
2022/03/24 06:47:49;;;;;;;;;72.00;54.67;;;;;13.15;29.99;100357.63;5072823;28;9000;-71
2022/03/24 06:50:18;;;;;;;;;67.33;53.67;;;;;13.36;30.57;100355.03;5108291;28;8998;-71
2022/03/24 06:52:47;;;;;;;;;65.67;52.67;;;;;13.54;29.90;100362.06;5104309;28;9114;-70
2022/03/24 06:55:16;;;;;;;;;70.00;53.33;;;;;13.66;29.59;100355.94;5088261;28;9036;-71
2022/03/24 06:57:44;;;;;;;;;67.33;51.67;;;;;13.80;29.43;100350.72;5102857;28;9009;-70
2022/03/24 07:00:15;;;;;;;;;67.67;54.00;;;;;13.68;30.05;100353.31;5087516;28;8979;-70
2022/03/24 07:02:46;;;;;;;;;62.67;50.33;;;;;13.90;29.42;100348.97;5105698;28;8947;-71
2022/03/24 07:05:16;;;;;;;;;64.67;53.33;;;;;13.72;29.33;100355.94;5106632;28;8973;-70
2022/03/24 07:07:45;;;;;;;;;71.33;55.33;;;;;13.79;29.76;100355.06;5093061;28;8955;-71
2022/03/24 07:10:14;;;;;;;;;66.33;53.33;;;;;13.98;29.65;100358.53;5108609;28;9261;-72
2022/03/24 07:12:43;;;;;;;;;68.33;54.67;;;;;14.19;28.74;100356.75;5089300;28;9089;-70
2022/03/24 07:15:12;;;;;;;;;73.00;56.00;;;;;14.24;28.40;100355.88;5061621;28;8935;-71
2022/03/24 07:17:41;;;;;;;;;70.00;55.67;;;;;14.22;28.28;100356.75;5108221;28;9111;-71
2022/03/24 07:20:10;;;;;;;;;65.33;52.67;;;;;13.66;28.63;100353.31;5092415;28;9278;-71
2022/03/24 07:22:40;;;;;;;;;38.00;33.67;;;;;13.99;28.57;100357.69;5072005;28;9095;-70
2022/03/24 07:25:11;;;;;;;;;61.67;50.33;;;;;14.19;28.84;100356.75;5068884;28;9115;-71
2022/03/24 07:27:40;;;;;;;;;65.00;52.33;;;;;14.39;28.72;100354.97;5096009;28;9106;-71
2022/03/24 07:30:10;;;;;;;;;63.67;52.33;;;;;14.28;28.25;100358.50;5103822;28;9004;-71
2022/03/24 07:32:39;;;;;;;;;66.00;52.67;;;;;14.06;28.54;100355.91;5068642;28;9317;-70
2022/03/24 07:35:15;;;;;;;;;68.33;54.67;;;;;14.24;28.59;100360.25;5047247;28;9259;-72
2022/03/24 07:37:46;;;;;;;;;69.00;55.00;;;;;14.29;28.46;100352.34;5087259;28;9212;-71
2022/03/24 07:40:18;;;;;;;;;70.67;56.00;;;;;14.45;28.49;100358.44;5087225;28;9205;-70
2022/03/24 07:42:47;;;;;;;;;65.67;50.67;;;;;14.61;28.28;100349.66;5087467;28;9251;-72
2022/03/24 07:45:16;;;;;;;;;66.33;52.33;;;;;14.66;28.60;100347.88;5107255;28;9095;-71
2022/03/24 07:48:10;;;;;;;;;62.67;52.00;;;;;14.30;28.70;100351.50;5107489;28;9402;-70
2022/03/24 07:50:41;;;;;;;;;67.67;53.67;;;;;14.56;29.07;100351.41;5043437;28;9372;-71
2022/03/24 07:53:44;;;;;;;;;65.33;52.00;;;;;14.88;28.50;100353.06;5026634;28;9079;-70
2022/03/24 07:56:16;;;;;;;;;64.67;53.00;;;;;14.79;28.73;100349.56;4965646;28;8956;-71
2022/03/24 07:58:44;;;;;;;;;64.00;52.00;;;;;14.94;28.53;100348.63;4965886;28;9101;-71
2022/03/24 08:01:13;;;;;;;;;64.00;52.00;;;;;15.05;27.85;100352.94;4965252;28;8977;-71
2022/03/24 08:03:43;;;;;;;;;72.00;55.33;;;;;14.82;27.64;100354.81;4965848;28;9193;-70
2022/03/24 08:06:17;;;;;;;;;67.67;52.33;;;;;14.52;28.43;100360.19;4965742;28;9428;-71
2022/03/24 08:08:45;;;;;;;;;62.67;52.33;;;;;14.74;28.62;100353.97;4965598;28;9949;-71
2022/03/24 08:11:15;;;;;;;;;67.00;51.67;;;;;14.90;28.07;100349.53;4965941;28;9019;-72
2022/03/24 08:13:47;;;;;;;;;66.67;54.00;;;;;15.15;28.25;100352.03;4965661;28;9105;-71
2022/03/24 08:16:16;;;;;;;;;68.00;54.00;;;;;15.42;28.17;100356.19;4981751;28;9017;-71
2022/03/24 08:18:44;;;;;;;;;69.33;54.67;;;;;15.39;27.57;100361.50;4985239;28;9285;-71
2022/03/24 08:21:13;;;;;;;;;69.00;52.67;;;;;14.76;28.81;100361.84;4982496;28;9143;-71
2022/03/24 08:23:43;;;;;;;;;68.00;53.67;;;;;15.15;28.52;100359.91;4984848;28;10091;-71
2022/03/24 08:26:11;;;;;;;;;64.00;50.67;;;;;15.08;28.59;100360.81;4984723;28;9004;-71
2022/03/24 08:28:41;;;;;;;;;67.00;54.00;;;;;15.22;28.32;100353.72;4953433;28;9176;-71
2022/03/24 08:31:10;;;;;;;;;67.67;54.67;;;;;15.35;28.61;100351.91;4987912;28;9328;-73
2022/03/24 08:33:39;;;;;;;;;70.67;57.33;;;;;15.57;28.00;100345.56;5028975;28;9292;-71
2022/03/24 08:36:09;;;;;;;;;69.33;55.67;;;;;15.42;28.24;100352.72;5067978;28;9309;-71
2022/03/24 08:38:38;;;;;;;;;69.00;54.50;;;;;15.67;28.29;100349.00;5064633;28;9430;-73
2022/03/24 08:41:08;;;;;;;;;66.33;53.33;;;;;15.92;28.32;100348.81;5034895;28;9121;-72
2022/03/24 08:43:36;;;;;;;;;69.25;56.00;;;;;15.30;29.30;100345.78;5071184;28;10244;-70
2022/03/24 08:46:08;;;;;;;;;67.00;52.00;;;;;15.31;29.31;100345.78;5070903;28;10317;-69
2022/03/24 08:48:37;;;;;;;;;68.67;56.00;;;;;15.74;28.78;100352.47;5069867;28;9268;-68
2022/03/24 08:51:10;;;;;;;;;64.67;52.00;;;;;15.13;28.93;100357.28;5069242;28;9331;-69
2022/03/24 08:53:39;;;;;;;;;64.50;52.00;;;;;15.54;28.79;100353.50;5107849;28;9087;-70
2022/03/24 08:56:10;;;;;;;;;72.00;57.00;;;;;15.11;28.44;100351.16;5098031;28;8936;-72
2022/03/24 08:58:39;;;;;;;;;63.50;51.50;;;;;15.21;28.32;100352.84;5061298;28;9646;-71
2022/03/24 09:01:11;;;;;;;;;66.67;54.00;;;;;15.35;28.68;100358.00;5046555;28;8860;-71
2022/03/24 09:03:40;;;;;;;;;63.33;51.33;;;;;15.31;29.25;100347.53;5096248;28;9830;-71
2022/03/24 09:06:11;;;;;;;;;66.50;52.75;;;;;15.69;28.96;100349.88;5099147;28;9217;-70
2022/03/24 09:08:39;;;;;;;;;67.67;54.67;;;;;15.25;28.89;100343.19;5072269;28;8902;-71
2022/03/24 09:11:08;;;;;;;;;66.00;52.00;;;;;15.36;28.76;100351.84;5080654;28;9181;-72
2022/03/24 09:13:37;;;;;;;;;61.75;50.00;;;;;15.27;28.97;100345.81;5107976;28;9081;-72
2022/03/24 09:16:07;;;;;;;;;67.67;53.00;;;;;15.15;29.68;100346.75;5110430;28;8966;-70
2022/03/24 09:18:37;;;;;;;;;62.33;51.00;;;;;15.01;29.90;100350.34;5110657;28;9080;-70
2022/03/24 09:21:06;;;;;;;;;63.00;52.00;;;;;15.38;29.78;100347.47;5111168;28;9044;-72
2022/03/24 09:23:34;;;;;;;;;68.50;55.00;;;;;15.62;29.59;100347.31;5091108;28;9084;-70
2022/03/24 09:26:03;;;;;;;;;61.25;51.00;;;;;15.75;29.28;100341.94;5102502;28;9297;-71
2022/03/24 09:28:52;;;;;;;;;61.25;49.25;;;;;16.21;28.94;100327.47;5066631;28;8874;-70
2022/03/24 09:31:21;;;;;;;;;59.00;47.50;;;;;15.99;27.85;100334.69;5044691;28;8850;-73
2022/03/24 09:33:51;;;;;;;;;63.00;50.50;;;;;15.96;28.61;100326.84;5092522;28;8862;-72
2022/03/24 09:36:22;;;;;;;;;62.00;49.00;;;;;15.96;28.63;100321.59;5083017;28;8904;-71
2022/03/24 09:38:50;;;;;;;;;56.50;46.75;;;;;16.16;27.84;100322.25;5095694;28;8933;-71
2022/03/24 09:41:20;;;;;;;;;56.75;47.00;;;;;15.59;27.71;100321.91;5097315;28;8870;-73
2022/03/24 09:43:49;;;;;;;;;62.50;50.00;;;;;15.62;28.49;100326.28;5097313;28;8956;-71
2022/03/24 09:46:20;;;;;;;;;61.00;50.00;;;;;15.56;28.34;100322.81;5104414;28;8837;-71
2022/03/24 09:48:48;;;;;;;;;62.75;50.25;;;;;15.75;28.61;100317.41;5103139;28;8968;-73
2022/03/24 09:51:19;;;;;;;;;58.00;48.50;;;;;15.95;27.70;100315.47;5096490;28;8846;-72
2022/03/24 09:53:48;;;;;;;;;49.75;41.50;;;;;16.37;27.19;100315.88;5079477;28;8868;-73
2022/03/24 09:56:18;;;;;;;;;60.75;48.75;;;;;16.19;27.34;100313.44;5104529;28;8868;-70
2022/03/24 09:58:49;;;;;;;;;60.00;48.50;;;;;16.10;27.29;100311.78;5100294;28;8874;-72
2022/03/24 10:01:18;;;;;;;;;55.25;46.00;;;;;16.44;28.01;100311.41;5099695;28;9521;-70
2022/03/24 10:04:04;;;;;;;;;54.25;45.00;;;;;16.59;26.89;100297.16;5091070;28;8943;-71
2022/03/24 10:06:36;;;;;;;;;55.25;44.75;;;;;16.94;25.96;100296.72;5108900;28;8837;-71
2022/03/24 10:09:05;;;;;;;;;52.25;44.50;;;;;16.91;25.95;100294.13;5099892;28;8941;-71
2022/03/24 10:11:35;;;;;;;;;52.00;42.50;;;;;17.14;25.62;100293.81;5037156;28;9707;-69
2022/03/24 10:14:05;;;;;;;;;51.75;43.25;;;;;17.46;25.55;100281.84;5071143;28;8868;-72
2022/03/24 10:16:41;;;;;;;;;55.25;43.00;;;;;17.73;25.00;100280.50;5100634;28;8938;-73
2022/03/24 10:19:12;;;;;;;;;46.25;37.00;;;;;17.62;23.58;100281.59;5091786;28;8853;-71
2022/03/24 10:21:45;;;;;;;;;45.75;38.00;;;;;17.36;23.58;100272.34;5100790;28;8873;-72
2022/03/24 10:24:16;;;;;;;;;53.25;41.50;;;;;17.22;24.70;100263.78;5049970;28;8865;-70
2022/03/24 10:26:47;;;;;;;;;40.50;36.50;;;;;17.17;23.65;100258.59;5071410;28;8849;-73
2022/03/24 10:29:18;;;;;;;;;39.50;35.00;;;;;17.59;22.92;100256.13;5103502;28;8838;-71
2022/03/24 10:31:52;;;;;;;;;36.50;32.00;;;;;17.66;22.81;100247.22;5097647;28;8842;-72
2022/03/24 10:34:32;;;;;;;;;32.75;30.75;;;;;18.08;22.25;100246.44;5095119;28;8885;-72
2022/03/24 10:37:06;;;;;;;;;30.50;29.00;;;;;18.36;20.05;100243.25;5106433;28;8854;-71
2022/03/24 10:39:36;;;;;;;;;27.75;27.00;;;;;18.17;19.39;100234.84;5109600;28;8887;-71
2022/03/24 10:42:14;;;;;;;;;27.75;24.75;;;;;17.93;19.65;100245.84;5108755;28;8862;-71
2022/03/24 10:45:03;;;;;;;;;17.50;15.00;;;;;17.58;19.22;100248.25;5108875;28;8993;-70
2022/03/24 10:47:47;;;;;;;;;27.50;26.00;;;;;17.65;19.77;100237.53;5108728;28;9642;-70
2022/03/24 10:50:33;;;;;;;;;31.75;25.50;;;;;17.77;19.73;100239.09;5109176;28;8842;-72
2022/03/24 10:53:06;;;;;;;;;28.25;27.00;;;;;17.61;19.24;100243.78;5108380;28;8865;-71
2022/03/24 10:55:47;;;;;;;;;28.00;26.00;;;;;17.83;19.25;100238.13;5104209;28;8878;-72
2022/03/24 10:58:22;;;;;;;;;28.75;27.75;;;;;18.03;18.93;100235.09;5088502;28;8852;-70
2022/03/24 11:00:53;;;;;;;;;27.75;25.75;;;;;17.62;18.75;100234.13;5097375;28;8822;-71
2022/03/24 11:03:22;;;;;;;;;23.50;23.00;;;;;17.83;19.51;100222.28;5094518;28;8880;-71
2022/03/24 11:05:51;;;;;;;;;28.25;26.25;;;;;18.04;19.62;100207.81;5100024;28;8860;-71
2022/03/24 11:08:21;;;;;;;;;22.25;22.00;;;;;18.13;18.86;100205.00;5097212;28;8842;-70
2022/03/24 11:10:51;;;;;;;;;24.75;23.75;;;;;18.45;18.99;100208.69;5094208;28;8871;-71
2022/03/24 11:13:30;;;;;;;;;24.25;23.50;;;;;18.74;18.45;100196.63;5100190;28;8865;-71
2022/03/24 11:15:58;;;;;;;;;25.00;23.00;;;;;18.79;18.10;100194.72;5092371;28;8864;-71
2022/03/24 11:18:28;;;;;;;;;25.75;24.25;;;;;18.72;18.55;100198.44;5098147;28;8845;-70
2022/03/24 11:21:03;;;;;;;;;28.50;27.25;;;;;18.73;18.30;100200.16;5066458;28;10008;-71
2022/03/24 11:23:40;;;;;;;;;28.50;26.25;;;;;18.51;17.60;100203.28;5098744;28;8843;-71
2022/03/24 11:26:10;;;;;;;;;29.00;26.00;;;;;18.54;17.75;100197.06;5094033;28;9614;-71
2022/03/24 11:28:40;;;;;;;;;29.75;26.00;;;;;18.51;17.75;100179.53;5097843;28;8881;-71
2022/03/24 11:31:10;;;;;;;;;25.75;24.50;;;;;18.67;18.42;100165.03;5101935;28;9696;-69
2022/03/24 11:33:42;;;;;;;;;31.25;28.75;;;;;18.82;18.02;100162.97;5098219;28;8962;-72